Friday, September 21, 2018, 5:45 PM EDT
Back to Local

KDXR, Danbury Municipal Airport

Location: Danbury, CT, United States Lat: 41.367
Local Time: 5:45 PM EDT (21:45 GMT) Lon: -73.483
Time Zone: US/Eastern Elev: 459 ft

Show me the last for .
Show Decoded

2018-09-21 16:53 METAR KDXR 212053Z VRB06KT 10SM OVC019 19/17 A3009 RMK AO2 SLP188 T01940167
                 58025 =
2018-09-21 15:53 METAR KDXR 211953Z 19009KT 10SM OVC023 20/16 A3012 RMK AO2 SLP196 T02000161 =
2018-09-21 15:25 METAR KDXR 211925Z 19008KT 10SM FEW022 OVC029 21/16 A3013 RMK AO2 T02060161 =
2018-09-21 14:53 METAR KDXR 211853Z 20011G18KT 10SM SCT024 SCT028 OVC036 21/16 A3014 RMK AO2
                 SLP203 T02060161 =
2018-09-21 14:23 METAR KDXR 211823Z 17009G16KT 10SM SCT024 OVC034 20/16 A3015 RMK AO2 T02000161 =
2018-09-21 13:53 METAR KDXR 211753Z 18006KT 10SM BKN026 OVC032 20/16 A3017 RMK AO2 SLP213
                 T02000156 10206 20178 57026 =
2018-09-21 13:39 METAR KDXR 211739Z 17009KT 10SM SCT024 OVC033 20/16 A3018 RMK AO2 T02000156 =
2018-09-21 12:53 METAR KDXR 211653Z 17006KT 10SM OVC026 20/16 A3019 RMK AO2 SLP221 T02000156 =
2018-09-21 12:29 METAR KDXR 211629Z 21006KT 10SM BKN024 OVC031 19/15 A3021 RMK AO2 T01940150 =
2018-09-21 11:53 METAR KDXR 211553Z 19006KT 10SM OVC031 19/16 A3022 RMK AO2 SLP230 T01940156 =
2018-09-21 11:41 METAR KDXR 211541Z 18004KT 10SM SCT025 OVC030 19/16 A3022 RMK AO2 T01940156 =
2018-09-21 10:53 METAR KDXR 211453Z 17007KT 10SM OVC027 19/16 A3025 RMK AO2 SLP240 T01890156
                 58010 =
2018-09-21 10:10 METAR KDXR 211410Z 19004KT 10SM OVC030 18/16 A3026 RMK AO2 T01830156 =
2018-09-21 09:53 METAR KDXR 211353Z 17007KT 10SM OVC029 18/16 A3026 RMK AO2 SLP244 T01830156 =
2018-09-21 09:23 METAR KDXR 211323Z 17005KT 10SM SCT019 BKN024 OVC031 18/16 A3026 RMK AO2
                 T01780156 =
2018-09-21 08:53 METAR KDXR 211253Z 17005KT 10SM OVC033 18/16 A3027 RMK AO2 SLP248 T01780156 =
2018-09-21 07:53 METAR KDXR 211153Z 17005KT 10SM OVC031 18/16 A3028 RMK AO2 SLP251 T01780156
                 10178 20172 51004 =
2018-09-21 06:53 METAR KDXR 211053Z VRB03KT 10SM OVC023 17/16 A3027 RMK AO2 SLP249 T01720156 =
2018-09-21 06:39 METAR KDXR 211039Z AUTO 17004KT 10SM BKN024 OVC031 17/16 A3027 RMK AO2 T01720156
                 =
2018-09-21 06:10 METAR KDXR 211010Z AUTO 15004KT 10SM SCT024 OVC033 17/16 A3027 RMK AO2 T01720156
                 =
2018-09-21 05:53 METAR KDXR 210953Z AUTO 15003KT 10SM BKN025 OVC031 17/16 A3027 RMK AO2 SLP249
                 T01720156 =
2018-09-21 04:53 METAR KDXR 210853Z AUTO 16003KT 10SM OVC025 17/16 A3026 RMK AO2 SLP245 T01720156
                 55001 =
2018-09-21 03:53 METAR KDXR 210753Z AUTO 15003KT 10SM FEW015 OVC025 17/16 A3026 RMK AO2 SLP244
                 T01720161 =
2018-09-21 02:53 METAR KDXR 210653Z AUTO 17003KT 10SM BKN020 OVC028 17/16 A3026 RMK AO2 SLP244
                 T01720156 =
2018-09-21 01:53 METAR KDXR 210553Z AUTO 16005KT 10SM BKN025 OVC031 17/16 A3027 RMK AO2 SLP246
                 T01720156 10183 20172 58001 =
2018-09-21 00:53 METAR KDXR 210453Z AUTO 14003KT 10SM SCT013 OVC021 17/16 A3028 RMK AO2 SLP252
                 T01720156 402110156 =
2018-09-21 00:08 METAR KDXR 210408Z AUTO 00000KT 10SM FEW016 BKN022 OVC050 18/16 A3028 RMK AO2
                 T01780161 =
2018-09-20 23:53 METAR KDXR 210353Z AUTO 00000KT 10SM FEW020 OVC050 18/16 A3028 RMK AO2 SLP251
                 T01780161 =
2018-09-20 22:53 METAR KDXR 210253Z AUTO 21005KT 10SM BKN050 17/16 A3027 RMK AO2 SLP248 T01720156
                 50006 =
2018-09-20 21:53 METAR KDXR 210153Z 14008KT 10SM OVC047 18/15 A3027 RMK AO2 SLP249 T01780150 =
2018-09-20 20:53 METAR KDXR 210053Z 14004KT 10SM FEW030 OVC048 18/15 A3027 RMK AO2 SLP248
                 T01830150 =
2018-09-20 19:53 METAR KDXR 202353Z 16003KT 10SM FEW037 OVC048 18/15 A3025 RMK AO2 SLP242
                 T01830150 10211 20183 51005 =
2018-09-20 18:53 METAR KDXR 202253Z 17004KT 10SM OVC048 19/16 A3025 RMK AO2 SLP241 T01890156 =
2018-09-20 17:53 METAR KDXR 202153Z 18004KT 10SM OVC046 19/15 A3024 RMK AO2 SLP238 T01940150 =

Support USWX by starting your Amazon purchase here.